createdAt,value
2022-09-07T00:01:55.046Z,8.10
2022-09-07T00:03:59.902Z,7.80
2022-09-07T00:06:09.931Z,7.20
2022-09-07T00:08:16.032Z,7.40
2022-09-07T00:10:21.087Z,7.60
2022-09-07T00:12:25.863Z,7.40
2022-09-07T00:14:30.667Z,6.80
2022-09-07T00:16:38.587Z,9.70
2022-09-07T00:18:46.097Z,7.70
2022-09-07T00:20:59.513Z,7.50
2022-09-07T00:23:04.180Z,8.30
2022-09-07T00:25:10.324Z,7.60
2022-09-07T00:27:15.019Z,7.20
2022-09-07T00:29:19.737Z,7.40
2022-09-07T00:31:24.747Z,7.40
2022-09-07T00:33:30.230Z,8.40
2022-09-07T00:35:38.907Z,7.80
2022-09-07T00:37:43.618Z,8.70
2022-09-07T00:39:48.399Z,7.10
2022-09-07T00:41:53.123Z,7.70
2022-09-07T00:44:19.051Z,7.10
2022-09-07T00:46:25.972Z,8.10
2022-09-07T00:48:34.877Z,7.90
2022-09-07T00:50:44.178Z,7.80
2022-09-07T00:52:52.262Z,7.40
2022-09-07T00:55:01.952Z,7.60
2022-09-07T00:57:07.440Z,7.00
2022-09-07T00:59:14.378Z,7.70
2022-09-07T01:01:19.221Z,7.70
2022-09-07T01:03:27.370Z,8.00
2022-09-07T01:05:37.537Z,7.90
2022-09-07T01:07:43.223Z,8.50
2022-09-07T01:09:48.563Z,7.30
2022-09-07T01:11:57.464Z,7.10
2022-09-07T01:14:04.080Z,8.40
2022-09-07T01:16:16.551Z,8.80
2022-09-07T01:18:33.139Z,8.10
2022-09-07T01:20:55.630Z,8.00
2022-09-07T01:23:30.875Z,8.80
2022-09-07T01:25:46.358Z,9.10
2022-09-07T01:28:15.891Z,8.30
2022-09-07T01:30:22.400Z,8.60
2022-09-07T01:32:39.668Z,9.20
2022-09-07T01:34:49.629Z,10.00
2022-09-07T01:37:05.211Z,8.40
2022-09-07T01:39:09.867Z,9.00
2022-09-07T01:41:22.781Z,8.90
2022-09-07T01:43:39.461Z,8.60
2022-09-07T01:45:45.795Z,9.00
2022-09-07T01:47:54.044Z,7.90
2022-09-07T01:50:05.851Z,9.10
2022-09-07T01:52:17.470Z,7.90
2022-09-07T01:54:27.148Z,8.80
2022-09-07T01:56:36.082Z,8.30
2022-09-07T01:58:44.917Z,8.50
2022-09-07T02:00:55.114Z,8.70
2022-09-07T02:03:05.707Z,9.00
2022-09-07T02:05:13.544Z,8.80
2022-09-07T02:07:24.594Z,9.20
2022-09-07T02:09:32.417Z,8.60
2022-09-07T02:11:40.481Z,8.70
2022-09-07T02:13:51.397Z,9.90
2022-09-07T02:15:59.846Z,9.30
2022-09-07T02:18:08.646Z,8.80
2022-09-07T02:20:17.523Z,7.90
2022-09-07T02:22:26.030Z,9.70
2022-09-07T02:24:34.876Z,8.50
2022-09-07T02:26:41.642Z,9.00
2022-09-07T02:28:46.364Z,8.30
2022-09-07T02:30:51.050Z,10.90
2022-09-07T02:32:58.817Z,8.30
2022-09-07T02:35:03.677Z,9.40
2022-09-07T02:37:10.521Z,9.50
2022-09-07T02:39:15.443Z,10.00
2022-09-07T02:41:32.731Z,9.10
2022-09-07T02:43:37.539Z,9.00
2022-09-07T02:46:02.148Z,10.30
2022-09-07T02:48:17.510Z,9.30
2022-09-07T02:50:37.381Z,9.40
2022-09-07T02:52:51.918Z,10.40
2022-09-07T02:55:09.034Z,10.60
2022-09-07T02:57:25.991Z,9.00
2022-09-07T02:59:40.881Z,9.40
2022-09-07T03:01:58.546Z,9.30
2022-09-07T03:04:13.612Z,10.00
2022-09-07T03:06:26.555Z,10.10
2022-09-07T03:08:36.734Z,10.40
2022-09-07T03:10:42.952Z,10.10
2022-09-07T03:12:49.512Z,10.20
2022-09-07T03:14:54.278Z,9.90
2022-09-07T03:16:59.952Z,10.00
2022-09-07T03:19:05.181Z,10.80
2022-09-07T03:21:09.856Z,9.60
2022-09-07T03:23:14.745Z,11.60
2022-09-07T03:25:20.158Z,11.10
2022-09-07T03:27:25.012Z,11.40
2022-09-07T03:29:29.679Z,9.90
2022-09-07T03:31:35.335Z,10.50
2022-09-07T03:33:40.016Z,10.50
2022-09-07T03:35:45.283Z,10.00
2022-09-07T03:37:50.063Z,10.60
2022-09-07T03:39:55.040Z,10.20
2022-09-07T03:41:59.784Z,10.90
2022-09-07T03:44:06.098Z,10.30
2022-09-07T03:46:11.071Z,10.80
2022-09-07T03:48:15.762Z,10.10
2022-09-07T03:50:20.537Z,10.40
2022-09-07T03:52:25.316Z,11.30
2022-09-07T03:54:29.970Z,11.10
2022-09-07T03:56:34.601Z,12.30
2022-09-07T03:58:39.693Z,11.40
2022-09-07T04:00:44.369Z,11.30
2022-09-07T04:02:49.062Z,12.10
2022-09-07T04:04:53.787Z,11.90
2022-09-07T04:06:58.415Z,11.40
2022-09-07T04:09:06.025Z,12.00
2022-09-07T04:11:13.849Z,11.70
2022-09-07T04:13:18.513Z,13.60
2022-09-07T04:15:23.220Z,12.20
2022-09-07T04:17:31.011Z,11.50
2022-09-07T04:19:35.963Z,11.90
2022-09-07T04:21:40.745Z,12.50
2022-09-07T04:23:45.973Z,12.60
2022-09-07T04:25:52.339Z,13.10
2022-09-07T04:27:58.778Z,12.50
2022-09-07T04:30:03.653Z,12.90
2022-09-07T04:32:10.486Z,12.00
2022-09-07T04:34:18.584Z,12.90
2022-09-07T04:36:24.050Z,12.80
2022-09-07T04:38:29.644Z,13.50
2022-09-07T04:40:34.736Z,13.70
2022-09-07T04:42:40.164Z,14.30
2022-09-07T04:44:45.046Z,13.10
2022-09-07T04:46:49.791Z,13.70
2022-09-07T04:48:56.412Z,13.80
2022-09-07T04:51:06.442Z,14.50
2022-09-07T04:53:11.158Z,14.00
2022-09-07T04:55:16.361Z,13.50
2022-09-07T04:57:21.222Z,15.50
2022-09-07T04:59:26.356Z,13.50
2022-09-07T05:01:31.552Z,13.10
2022-09-07T05:03:38.675Z,14.50
2022-09-07T05:05:46.376Z,13.90
2022-09-07T05:07:51.044Z,14.80
2022-09-07T05:09:55.809Z,15.70
2022-09-07T05:12:00.646Z,14.60
2022-09-07T05:14:05.869Z,15.20
2022-09-07T05:16:12.522Z,15.00
2022-09-07T05:18:17.326Z,14.80
2022-09-07T05:20:22.190Z,15.60
2022-09-07T05:22:27.015Z,13.80
2022-09-07T05:24:31.949Z,14.60
2022-09-07T05:26:37.748Z,14.30
2022-09-07T05:28:42.666Z,14.70
2022-09-07T05:33:12.076Z,12.80
2022-09-07T05:35:17.378Z,15.00
2022-09-07T05:37:22.105Z,14.60
2022-09-07T05:39:27.565Z,16.60
2022-09-07T05:41:32.465Z,14.20
2022-09-07T05:46:01.929Z,13.90
2022-09-07T05:48:06.618Z,15.10
2022-09-07T05:50:11.845Z,14.00
2022-09-07T05:52:16.587Z,14.00
2022-09-07T05:54:21.302Z,14.30
2022-09-07T05:56:26.028Z,13.60
2022-09-07T05:58:31.305Z,13.30
2022-09-07T06:00:36.153Z,13.40
2022-09-07T06:02:40.930Z,15.30
2022-09-07T06:04:45.662Z,15.80
2022-09-07T06:07:17.771Z,14.90
2022-09-07T06:09:15.215Z,14.40
2022-09-07T06:11:22.166Z,13.30
2022-09-07T06:13:26.873Z,13.20
2022-09-07T06:15:33.414Z,13.90
2022-09-07T06:17:38.119Z,14.10
2022-09-07T06:19:42.826Z,12.30
2022-09-07T06:21:47.589Z,13.10
2022-09-07T06:23:52.909Z,12.70
2022-09-07T06:25:57.689Z,12.60
2022-09-07T06:28:02.573Z,13.50
2022-09-07T06:30:10.105Z,12.60
2022-09-07T06:34:39.396Z,13.40
2022-09-07T06:36:44.109Z,15.70
2022-09-07T06:38:49.817Z,16.10
2022-09-07T06:43:19.329Z,13.70
2022-09-07T06:45:23.981Z,14.00
2022-09-07T06:47:28.748Z,13.40
2022-09-07T06:49:33.525Z,14.20
2022-09-07T06:51:38.494Z,13.90
2022-09-07T06:53:44.934Z,14.70
2022-09-07T06:55:50.438Z,13.30
2022-09-07T06:57:55.155Z,17.60
2022-09-07T06:59:59.839Z,13.30
2022-09-07T07:02:04.987Z,12.60
2022-09-07T07:04:09.649Z,12.80
2022-09-07T07:06:14.941Z,14.20
2022-09-07T07:08:19.755Z,14.60
2022-09-07T07:10:25.186Z,13.90
2022-09-07T07:14:35.032Z,11.80
2022-09-07T07:16:41.041Z,14.50
2022-09-07T07:18:46.023Z,13.20
2022-09-07T07:20:50.714Z,12.80
2022-09-07T07:22:55.566Z,14.10
2022-09-07T07:25:00.297Z,13.00
2022-09-07T07:27:05.237Z,13.80
2022-09-07T07:29:09.962Z,13.30
2022-09-07T07:31:15.511Z,12.20
2022-09-07T07:33:20.223Z,14.40
2022-09-07T07:35:25.249Z,14.90
2022-09-07T07:37:29.982Z,14.50
2022-09-07T07:42:03.057Z,13.60
2022-09-07T07:44:10.369Z,14.90
2022-09-07T07:46:16.676Z,15.50
2022-09-07T07:48:21.403Z,13.40
2022-09-07T07:50:34.107Z,13.40
2022-09-07T07:55:42.931Z,14.80
2022-09-07T07:57:31.769Z,13.60
2022-09-07T07:59:36.745Z,13.40
2022-09-07T08:01:41.560Z,12.60
2022-09-07T08:03:46.882Z,12.70
2022-09-07T08:05:51.788Z,12.80
2022-09-07T08:07:56.456Z,11.70
2022-09-07T08:10:01.189Z,12.80
2022-09-07T08:12:06.084Z,13.50
2022-09-07T08:14:10.834Z,12.80
2022-09-07T08:16:16.349Z,12.00
2022-09-07T08:18:20.976Z,12.20
2022-09-07T08:20:25.756Z,11.10
2022-09-07T08:22:34.289Z,12.10
2022-09-07T08:24:39.916Z,16.60
2022-09-07T08:26:44.632Z,10.90
2022-09-07T08:28:49.308Z,12.30
2022-09-07T08:30:54.065Z,12.20
2022-09-07T08:32:58.682Z,13.20
2022-09-07T08:35:03.552Z,12.10
2022-09-07T08:37:08.280Z,11.70
2022-09-07T08:39:13.275Z,12.60
2022-09-07T08:41:42.445Z,11.30
2022-09-07T08:43:53.143Z,13.00
2022-09-07T08:46:03.118Z,11.80
2022-09-07T08:48:09.783Z,12.50
2022-09-07T08:50:21.779Z,12.60
2022-09-07T08:52:29.237Z,11.80
2022-09-07T08:54:34.532Z,12.60
2022-09-07T08:57:20.428Z,11.70
2022-09-07T08:59:17.921Z,12.70
2022-09-07T09:01:31.268Z,13.00
2022-09-07T09:06:12.033Z,12.30
2022-09-07T09:08:32.037Z,12.80
2022-09-07T09:10:48.333Z,13.00
2022-09-07T09:13:10.083Z,12.60
2022-09-07T09:15:21.527Z,13.20
2022-09-07T09:17:32.430Z,11.50
2022-09-07T09:20:01.735Z,11.10
2022-09-07T09:22:13.325Z,11.50
2022-09-07T09:24:19.973Z,11.70
2022-09-07T09:26:27.273Z,10.70
2022-09-07T09:28:32.538Z,12.30
2022-09-07T09:30:37.414Z,13.10
2022-09-07T09:32:43.582Z,12.40
2022-09-07T09:35:03.565Z,11.40
2022-09-07T09:37:12.890Z,10.00
2022-09-07T09:39:32.177Z,11.00
2022-09-07T09:41:39.075Z,11.50
2022-09-07T09:43:51.828Z,11.30
2022-09-07T09:46:13.333Z,11.40
2022-09-07T09:48:21.451Z,11.80
2022-09-07T09:52:56.137Z,13.70
2022-09-07T09:55:33.962Z,10.50
2022-09-07T10:00:27.519Z,10.30
2022-09-07T10:04:59.591Z,10.00
2022-09-07T10:07:18.097Z,10.50
2022-09-07T10:09:26.321Z,10.40
2022-09-07T10:14:19.880Z,10.20
2022-09-07T10:16:38.923Z,11.30
2022-09-07T10:18:59.527Z,10.90
2022-09-07T10:21:25.353Z,12.50
2022-09-07T10:23:30.067Z,10.20
2022-09-07T10:25:37.451Z,8.60
2022-09-07T10:27:43.130Z,9.80
2022-09-07T10:29:47.987Z,10.60
2022-09-07T10:32:20.056Z,10.20
2022-09-07T10:34:38.368Z,9.70
2022-09-07T10:36:53.089Z,9.30
2022-09-07T10:39:01.528Z,11.30
2022-09-07T10:41:09.748Z,11.10
2022-09-07T10:43:23.643Z,11.80
2022-09-07T10:45:38.801Z,9.60
2022-09-07T10:47:53.863Z,9.00
2022-09-07T10:50:23.525Z,8.80
2022-09-07T10:52:36.911Z,9.40
2022-09-07T10:54:51.216Z,10.10
2022-09-07T10:57:05.554Z,10.90
2022-09-07T11:00:07.496Z,9.00
2022-09-07T11:02:04.551Z,11.00
2022-09-07T11:04:32.936Z,10.40
2022-09-07T11:06:41.679Z,9.10
2022-09-07T11:09:18.765Z,9.50
2022-09-07T11:14:13.112Z,8.90
2022-09-07T11:19:35.043Z,9.10
2022-09-07T11:23:54.646Z,10.70
2022-09-07T11:26:10.521Z,9.90
2022-09-07T11:28:21.166Z,8.60
2022-09-07T11:30:30.903Z,9.90
2022-09-07T11:32:42.475Z,9.30
2022-09-07T11:34:52.113Z,9.40
2022-09-07T11:37:02.860Z,8.50
2022-09-07T11:39:15.233Z,10.10
2022-09-07T11:41:29.570Z,8.20
2022-09-07T11:43:40.185Z,10.20
2022-09-07T11:45:48.868Z,10.20
2022-09-07T11:47:59.740Z,9.00
2022-09-07T11:50:05.451Z,9.00
2022-09-07T11:52:21.075Z,9.10
2022-09-07T11:54:38.518Z,9.40
2022-09-07T11:56:46.877Z,9.20
2022-09-07T11:59:10.052Z,9.10
2022-09-07T12:01:25.158Z,8.90
2022-09-07T12:03:46.088Z,9.00
2022-09-07T12:06:14.907Z,10.20
2022-09-07T12:08:37.122Z,8.50
2022-09-07T12:11:08.143Z,10.60
2022-09-07T12:13:47.621Z,9.40
2022-09-07T12:16:00.366Z,9.70
2022-09-07T12:18:16.554Z,9.00
2022-09-07T12:20:25.668Z,10.60
2022-09-07T12:22:30.389Z,9.70
2022-09-07T12:24:45.518Z,10.60
2022-09-07T12:26:53.137Z,9.80
2022-09-07T12:29:20.527Z,8.90
2022-09-07T12:32:52.805Z,9.50
2022-09-07T12:34:46.171Z,9.10
2022-09-07T12:36:51.674Z,11.40
2022-09-07T12:39:23.290Z,9.00
2022-09-07T12:41:43.408Z,8.10
2022-09-07T12:44:04.997Z,9.50
2022-09-07T12:46:20.318Z,10.40
2022-09-07T12:48:39.823Z,9.30
2022-09-07T12:50:55.744Z,9.60
2022-09-07T12:53:28.434Z,10.30
2022-09-07T12:58:31.491Z,8.70
2022-09-07T13:00:49.824Z,9.80
2022-09-07T13:03:54.070Z,10.20
2022-09-07T13:06:05.022Z,10.30
2022-09-07T13:08:40.476Z,8.80
2022-09-07T13:10:45.878Z,12.60
2022-09-07T13:12:53.582Z,8.00
2022-09-07T13:14:59.389Z,11.20
2022-09-07T13:17:28.955Z,9.50
2022-09-07T13:20:20.297Z,8.30
2022-09-07T13:23:10.185Z,9.00
2022-09-07T13:25:44.198Z,9.60
2022-09-07T13:27:55.538Z,7.60
2022-09-07T13:30:02.799Z,9.60
2022-09-07T13:32:17.660Z,9.50
2022-09-07T13:34:48.343Z,7.90
2022-09-07T13:36:53.207Z,9.30
2022-09-07T13:38:58.474Z,9.00
2022-09-07T13:41:07.177Z,8.70
2022-09-07T13:43:19.314Z,8.10
2022-09-07T13:45:36.634Z,10.00
2022-09-07T13:47:54.080Z,8.20
2022-09-07T13:50:09.513Z,8.50
2022-09-07T13:52:19.053Z,9.60
2022-09-07T13:54:35.160Z,8.30
2022-09-07T13:56:51.675Z,7.90
2022-09-07T13:58:56.750Z,9.40
2022-09-07T14:01:04.558Z,9.90
2022-09-07T14:03:16.794Z,8.80
2022-09-07T14:05:22.691Z,8.20
2022-09-07T14:07:29.108Z,9.70
2022-09-07T14:09:34.938Z,9.40
2022-09-07T14:11:43.996Z,8.30
2022-09-07T14:14:08.224Z,10.10
2022-09-07T14:16:12.971Z,9.30
2022-09-07T14:18:22.445Z,10.80
2022-09-07T14:20:27.988Z,11.00
2022-09-07T14:22:38.113Z,9.20
2022-09-07T14:24:47.386Z,7.70
2022-09-07T14:26:52.377Z,8.70
2022-09-07T14:28:58.346Z,9.10
2022-09-07T14:31:03.717Z,8.30
2022-09-07T14:33:15.563Z,7.70
2022-09-07T14:35:23.426Z,7.80
2022-09-07T14:37:29.580Z,9.80
2022-09-07T14:39:38.587Z,8.70
2022-09-07T14:41:45.208Z,8.20
2022-09-07T14:43:57.923Z,8.20
2022-09-07T14:46:17.052Z,11.30
2022-09-07T14:48:31.430Z,8.90
2022-09-07T14:50:39.160Z,8.10
2022-09-07T14:53:34.224Z,8.50
2022-09-07T14:55:32.965Z,8.00
2022-09-07T14:57:37.682Z,8.20
2022-09-07T14:59:44.782Z,9.00
2022-09-07T15:01:49.461Z,8.90
2022-09-07T15:03:56.719Z,7.40
2022-09-07T15:06:02.439Z,7.10
2022-09-07T15:08:18.762Z,8.20
2022-09-07T15:10:41.164Z,8.50
2022-09-07T15:12:46.703Z,8.00
2022-09-07T15:14:51.522Z,9.10
2022-09-07T15:19:33.288Z,9.30
2022-09-07T15:21:38.020Z,8.10
2022-09-07T15:23:42.751Z,7.70
2022-09-07T15:25:52.217Z,7.70
2022-09-07T15:27:58.838Z,7.50
2022-09-07T15:30:03.733Z,7.90
2022-09-07T15:32:10.785Z,9.60
2022-09-07T15:34:16.905Z,9.00
2022-09-07T15:36:21.538Z,8.30
2022-09-07T15:41:20.624Z,8.50
2022-09-07T15:43:21.499Z,8.80
2022-09-07T15:45:27.899Z,8.50
2022-09-07T15:47:51.511Z,9.20
2022-09-07T15:49:57.251Z,6.90
2022-09-07T15:52:05.790Z,9.40
2022-09-07T15:54:17.373Z,8.30
2022-09-07T15:56:22.208Z,9.30
2022-09-07T15:58:26.976Z,8.50
2022-09-07T16:00:32.143Z,7.80
2022-09-07T16:05:01.495Z,8.20
2022-09-07T16:07:06.591Z,6.60
2022-09-07T16:09:11.360Z,8.20
2022-09-07T16:11:18.968Z,7.30
2022-09-07T16:13:24.646Z,7.00
2022-09-07T16:15:29.405Z,8.50
2022-09-07T16:17:36.872Z,7.10
2022-09-07T16:19:42.114Z,8.70
2022-09-07T16:21:46.913Z,8.20
2022-09-07T16:23:53.242Z,7.90
2022-09-07T16:25:59.624Z,8.50
2022-09-07T16:28:05.787Z,8.70
2022-09-07T16:30:13.476Z,7.50
2022-09-07T16:34:43.102Z,8.50
2022-09-07T16:36:48.170Z,6.50
2022-09-07T16:38:59.400Z,7.60
2022-09-07T16:41:04.644Z,8.60
2022-09-07T16:43:10.026Z,7.70
2022-09-07T16:47:39.890Z,7.60
2022-09-07T16:49:44.744Z,8.30
2022-09-07T16:51:49.846Z,7.50
2022-09-07T16:53:56.119Z,7.90
2022-09-07T16:56:05.298Z,8.80
2022-09-07T17:00:36.189Z,7.40
2022-09-07T17:02:41.017Z,7.20
2022-09-07T17:04:45.924Z,7.90
2022-09-07T17:06:50.814Z,7.80
2022-09-07T17:08:56.345Z,7.40
2022-09-07T17:11:02.677Z,8.60
2022-09-07T17:13:09.338Z,7.50
2022-09-07T17:15:14.961Z,7.60
2022-09-07T17:17:19.908Z,8.40
2022-09-07T17:19:30.704Z,8.90
2022-09-07T17:21:38.187Z,8.20
2022-09-07T17:23:51.096Z,7.70
2022-09-07T17:26:06.903Z,7.60
2022-09-07T17:28:11.729Z,7.60
2022-09-07T17:30:16.778Z,8.00
2022-09-07T17:32:24.653Z,9.60
2022-09-07T17:34:30.232Z,8.00
2022-09-07T17:36:35.294Z,8.70
2022-09-07T17:41:10.954Z,8.30
2022-09-07T17:45:40.451Z,9.80
2022-09-07T17:47:45.311Z,11.30
2022-09-07T17:49:50.311Z,10.00
2022-09-07T17:51:55.610Z,9.90
2022-09-07T17:54:02.104Z,9.10
2022-09-07T17:56:08.315Z,7.90
2022-09-07T17:58:13.213Z,11.80
2022-09-07T18:00:18.580Z,10.90
2022-09-07T18:02:23.805Z,12.50
2022-09-07T18:04:29.266Z,8.90
2022-09-07T18:06:34.464Z,10.10
2022-09-07T18:08:40.328Z,11.10
2022-09-07T18:13:10.423Z,10.60
2022-09-07T18:15:16.135Z,9.90
2022-09-07T18:17:21.080Z,11.70
2022-09-07T18:19:26.264Z,10.60
2022-09-07T18:21:33.608Z,10.10
2022-09-07T18:23:39.129Z,11.50
2022-09-07T18:25:44.076Z,9.90
2022-09-07T18:29:03.079Z,9.80
2022-09-07T18:30:15.058Z,12.00
2022-09-07T18:32:20.442Z,10.90
2022-09-07T18:34:26.099Z,11.30
2022-09-07T18:36:31.363Z,10.70
2022-09-07T18:38:36.981Z,11.60
2022-09-07T18:40:42.054Z,11.40
2022-09-07T18:42:47.475Z,12.50
2022-09-07T18:47:23.349Z,10.10
2022-09-07T18:49:32.786Z,13.00
2022-09-07T18:54:02.997Z,13.20
2022-09-07T18:56:13.258Z,11.50
2022-09-07T18:58:18.573Z,12.50
2022-09-07T19:00:23.870Z,11.20
2022-09-07T19:02:29.111Z,12.50
2022-09-07T19:06:59.690Z,10.50
2022-09-07T19:09:05.973Z,11.50
2022-09-07T19:11:13.391Z,11.70
2022-09-07T19:13:19.181Z,13.30
2022-09-07T19:15:24.461Z,10.60
2022-09-07T19:17:29.884Z,12.10
2022-09-07T19:19:35.298Z,11.80
2022-09-07T19:21:41.966Z,11.70
2022-09-07T19:23:55.097Z,12.20
2022-09-07T19:26:02.271Z,13.10
2022-09-07T19:28:07.646Z,12.00
2022-09-07T19:30:13.951Z,12.40
2022-09-07T19:32:19.113Z,13.90
2022-09-07T19:34:24.215Z,13.20
2022-09-07T19:36:31.967Z,14.70
2022-09-07T19:38:37.293Z,11.00
2022-09-07T19:40:42.168Z,12.50
2022-09-07T19:42:47.937Z,15.60
2022-09-07T19:44:53.880Z,12.10
2022-09-07T19:46:59.174Z,12.90
2022-09-07T19:49:04.281Z,13.00
2022-09-07T19:51:11.237Z,13.20
2022-09-07T19:53:16.761Z,14.10
2022-09-07T19:55:22.019Z,13.60
2022-09-07T19:57:27.163Z,13.50
2022-09-07T19:59:32.305Z,12.00
2022-09-07T20:01:37.902Z,14.00
2022-09-07T20:03:44.245Z,12.10
2022-09-07T20:05:53.247Z,12.80
2022-09-07T20:07:58.873Z,12.00
2022-09-07T20:10:04.199Z,13.30
2022-09-07T20:12:10.773Z,11.90
2022-09-07T20:14:16.916Z,12.30
2022-09-07T20:16:23.136Z,12.20
2022-09-07T20:18:28.822Z,12.00
2022-09-07T20:20:33.623Z,10.50
2022-09-07T20:22:38.662Z,10.50
2022-09-07T20:24:43.703Z,11.30
2022-09-07T20:26:48.501Z,11.50
2022-09-07T20:29:11.075Z,12.30
2022-09-07T20:31:21.912Z,12.40
2022-09-07T20:33:26.898Z,10.30
2022-09-07T20:35:32.791Z,10.70
2022-09-07T20:37:40.691Z,11.40
2022-09-07T20:39:45.540Z,11.60
2022-09-07T20:41:50.342Z,10.60
2022-09-07T20:43:55.565Z,10.90
2022-09-07T20:46:00.920Z,10.00
2022-09-07T20:48:05.865Z,10.60
2022-09-07T20:50:11.426Z,10.70
2022-09-07T20:52:16.175Z,9.90
2022-09-07T20:54:20.915Z,12.30
2022-09-07T20:56:27.535Z,10.90
2022-09-07T20:58:32.926Z,11.00
2022-09-07T21:00:37.782Z,9.80
2022-09-07T21:02:42.625Z,10.50
2022-09-07T21:04:47.370Z,11.00
2022-09-07T21:06:52.100Z,10.60
2022-09-07T21:08:57.418Z,10.90
2022-09-07T21:11:07.235Z,9.50
2022-09-07T21:13:12.334Z,10.10
2022-09-07T21:15:17.486Z,11.00
2022-09-07T21:17:22.416Z,9.30
2022-09-07T21:19:27.245Z,10.20
2022-09-07T21:21:39.400Z,10.00
2022-09-07T21:23:44.318Z,11.50
2022-09-07T21:25:49.096Z,11.10
2022-09-07T21:27:53.875Z,9.40
2022-09-07T21:29:58.624Z,11.60
2022-09-07T21:32:03.666Z,10.30
2022-09-07T21:34:09.406Z,10.40
2022-09-07T21:36:15.015Z,10.90
2022-09-07T21:38:19.719Z,9.40
2022-09-07T21:40:24.522Z,9.90
2022-09-07T21:42:29.316Z,9.10
2022-09-07T21:44:34.061Z,9.70
2022-09-07T21:46:38.922Z,10.90
2022-09-07T21:48:44.412Z,9.70
2022-09-07T21:50:55.897Z,9.90
2022-09-07T21:53:00.686Z,9.30
2022-09-07T21:55:06.424Z,10.80
2022-09-07T21:57:11.236Z,9.30
2022-09-07T21:59:16.019Z,9.70
2022-09-07T22:01:21.872Z,10.20
2022-09-07T22:03:27.291Z,10.30
2022-09-07T22:05:32.041Z,9.50
2022-09-07T22:07:36.823Z,9.00
2022-09-07T22:09:41.550Z,10.60
2022-09-07T22:11:46.432Z,9.20
2022-09-07T22:13:53.344Z,9.40
2022-09-07T22:15:58.112Z,9.00
2022-09-07T22:18:03.231Z,11.10
2022-09-07T22:20:10.053Z,9.20
2022-09-07T22:22:14.891Z,8.70
2022-09-07T22:24:19.557Z,10.10
2022-09-07T22:26:27.503Z,9.90
2022-09-07T22:28:32.955Z,8.80
2022-09-07T22:30:37.709Z,9.40
2022-09-07T22:32:47.045Z,10.30
2022-09-07T22:34:51.723Z,10.10
2022-09-07T22:36:56.479Z,9.40
2022-09-07T22:39:04.014Z,8.70
2022-09-07T22:41:11.010Z,9.80
2022-09-07T22:43:15.690Z,8.80
2022-09-07T22:45:20.481Z,9.80
2022-09-07T22:47:25.680Z,9.20
2022-09-07T22:49:30.562Z,8.80
2022-09-07T22:51:35.302Z,9.70
2022-09-07T22:53:42.243Z,9.90
2022-09-07T22:55:46.960Z,9.70
2022-09-07T22:57:51.664Z,9.30
2022-09-07T22:59:56.507Z,9.40
2022-09-07T23:02:01.149Z,9.50
2022-09-07T23:04:09.300Z,10.80
2022-09-07T23:06:22.898Z,9.60
2022-09-07T23:08:28.171Z,10.10
2022-09-07T23:10:35.430Z,9.20
2022-09-07T23:12:40.392Z,10.10
2022-09-07T23:14:45.182Z,10.20
2022-09-07T23:16:50.354Z,9.30
2022-09-07T23:18:55.922Z,10.10
2022-09-07T23:21:01.402Z,8.80
2022-09-07T23:23:06.318Z,8.70
2022-09-07T23:25:11.227Z,11.10
2022-09-07T23:27:16.032Z,10.20
2022-09-07T23:29:20.739Z,7.90
2022-09-07T23:31:26.882Z,8.90
2022-09-07T23:33:32.068Z,9.50
2022-09-07T23:35:36.756Z,9.20
2022-09-07T23:37:41.411Z,9.00
2022-09-07T23:39:46.193Z,10.30
2022-09-07T23:41:50.980Z,9.40
2022-09-07T23:43:56.043Z,10.30
2022-09-07T23:46:00.777Z,10.80
2022-09-07T23:48:05.588Z,10.40
2022-09-07T23:50:11.595Z,10.20
2022-09-07T23:52:16.194Z,10.50
2022-09-07T23:54:20.844Z,9.30
2022-09-07T23:56:26.094Z,9.10
2022-09-07T23:58:30.837Z,10.50
